Time;durP1;ratioP1;P1;durP2;ratioP2;P2;SDS_P1;SDS_P2;PMS_P1;PMS_P2;Temp;Humidity;BMP_temperature;BMP_pressure;BME280_temperature;BME280_humidity;BME280_pressure;Samples;Min_cycle;Max_cycle;Signal;HPM_P1;HPM_P2
2022/11/14 00:02:09;;;;;;;29.17;25.40;;;;;;;5.26;69.21;96022.72;5070986;28;20276;-67
2022/11/14 00:04:35;;;;;;;29.00;25.27;;;;;;;5.12;69.50;96017.53;5066694;28;20218;-68
2022/11/14 00:07:00;;;;;;;35.20;28.23;;;;;;;5.17;69.64;96022.47;5070169;28;20190;-68
2022/11/14 00:09:26;;;;;;;35.67;28.40;;;;;;;5.14;69.70;96020.91;5059297;28;20219;-68
2022/11/14 00:11:53;;;;;;;32.30;27.77;;;;;;;5.26;69.34;96016.69;5061810;28;20204;-68
2022/11/14 00:14:19;;;;;;;29.47;25.67;;;;;;;5.26;68.75;96017.50;5065441;28;20245;-68
2022/11/14 00:16:44;;;;;;;29.57;24.83;;;;;;;5.15;69.20;96016.50;5068422;28;20592;-69
2022/11/14 00:19:10;;;;;;;28.37;23.73;;;;;;;5.17;69.06;96017.25;5062324;28;20201;-69
2022/11/14 00:21:35;;;;;;;31.47;25.40;;;;;;;5.15;69.07;96009.53;5066660;28;20208;-69
2022/11/14 00:24:00;;;;;;;27.30;24.40;;;;;;;5.06;69.41;96008.31;5063014;28;20199;-68
2022/11/14 00:26:26;;;;;;;27.90;24.90;;;;;;;5.12;69.50;96012.31;5067779;28;20216;-68
2022/11/14 00:28:53;;;;;;;25.17;22.03;;;;;;;5.11;69.89;96018.47;5063579;28;20188;-69
2022/11/14 00:31:19;;;;;;;20.73;17.33;;;;;;;5.19;69.89;96018.84;5062486;28;20197;-69
2022/11/14 00:33:44;;;;;;;17.83;15.40;;;;;;;5.18;70.09;96013.72;5068699;28;20210;-68
2022/11/14 00:36:09;;;;;;;18.10;16.30;;;;;;;5.23;69.95;96017.72;5063222;28;20509;-69
2022/11/14 00:38:35;;;;;;;19.90;16.87;;;;;;;5.17;70.00;96012.88;5061157;28;20208;-68
2022/11/14 00:41:00;;;;;;;20.63;17.57;;;;;;;5.17;69.93;96015.50;5065395;28;20193;-68
2022/11/14 00:43:26;;;;;;;19.47;17.50;;;;;;;5.18;70.19;96018.94;5067968;28;20284;-68
2022/11/14 00:45:51;;;;;;;19.33;17.20;;;;;;;5.03;70.65;96016.34;5060008;28;20200;-68
2022/11/14 00:48:16;;;;;;;20.03;17.93;;;;;;;4.99;70.55;96021.81;5063710;28;20189;-68
2022/11/14 00:50:42;;;;;;;21.80;19.50;;;;;;;4.93;70.52;96022.19;5063751;28;20201;-68
2022/11/14 00:53:08;;;;;;;18.67;16.53;;;;;;;4.93;70.33;96014.38;5066220;28;20268;-68
2022/11/14 00:55:34;;;;;;;18.70;16.50;;;;;;;4.86;69.84;95993.06;5065461;28;20203;-68
2022/11/14 00:57:59;;;;;;;19.70;17.53;;;;;;;4.96;69.87;96016.81;5060383;28;20227;-69
2022/11/14 01:00:25;;;;;;;20.27;17.00;;;;;;;4.99;69.96;96003.56;5064246;28;20197;-69
2022/11/14 01:02:50;;;;;;;18.80;16.80;;;;;;;4.97;70.13;96010.66;5064088;28;20196;-69
2022/11/14 01:05:16;;;;;;;19.50;17.47;;;;;;;4.93;69.84;96015.22;5062695;28;20189;-69
2022/11/14 01:07:41;;;;;;;18.17;16.27;;;;;;;4.91;70.52;96011.84;5060293;28;20189;-68
2022/11/14 01:10:07;;;;;;;17.23;15.43;;;;;;;4.90;70.03;96014.56;5063844;28;20297;-68
2022/11/14 01:12:33;;;;;;;18.27;16.03;;;;;;;4.80;69.71;96009.91;5059355;28;20254;-69
2022/11/14 01:14:59;;;;;;;17.87;15.97;;;;;;;4.81;69.86;96009.00;5062754;28;20192;-68
2022/11/14 01:17:27;;;;;;;19.50;16.90;;;;;;;4.78;70.17;96003.94;5064228;28;20184;-68
2022/11/14 01:19:53;;;;;;;19.03;15.70;;;;;;;4.80;69.58;96004.69;5065643;28;20189;-68
2022/11/14 01:22:18;;;;;;;17.73;15.83;;;;;;;4.79;69.89;96005.63;5067374;28;20242;-68
2022/11/14 01:24:44;;;;;;;19.97;15.73;;;;;;;4.75;69.87;96001.53;5064507;28;20184;-68
2022/11/14 01:27:09;;;;;;;16.70;14.90;;;;;;;4.86;69.90;95999.13;5057361;28;20315;-68
2022/11/14 01:29:34;;;;;;;16.70;15.00;;;;;;;4.84;69.77;95985.34;5062063;28;20192;-69
2022/11/14 01:32:00;;;;;;;16.73;14.90;;;;;;;4.89;70.15;95992.88;5064868;28;20184;-68
2022/11/14 01:34:25;;;;;;;20.97;18.73;;;;;;;4.97;69.23;95987.19;5064506;28;20200;-68
2022/11/14 01:36:51;;;;;;;26.77;22.30;;;;;;;4.78;69.27;95984.88;5067752;28;20184;-68
2022/11/14 01:39:17;;;;;;;25.63;22.00;;;;;;;4.84;68.91;95987.94;5061259;28;20263;-68
2022/11/14 01:41:42;;;;;;;28.97;23.77;;;;;;;4.90;68.59;95988.50;5065249;28;20199;-68
2022/11/14 01:44:16;;;;;;;31.00;27.03;;;;;;;4.86;67.79;95986.09;5063958;28;20299;-69
2022/11/14 01:46:46;;;;;;;34.80;29.33;;;;;;;4.85;67.67;95981.78;5066553;28;20220;-69
2022/11/14 01:49:18;;;;;;;29.50;25.70;;;;;;;4.87;67.80;95973.91;5061140;28;20193;-69
2022/11/14 01:51:52;;;;;;;31.40;26.20;;;;;;;4.89;68.54;95972.00;5063724;28;20193;-69
2022/11/14 01:54:31;;;;;;;30.10;26.87;;;;;;;4.75;68.97;95964.22;5057584;28;20189;-69
2022/11/14 01:57:02;;;;;;;32.80;28.63;;;;;;;4.52;69.55;95968.22;5063190;28;20189;-69
2022/11/14 01:59:36;;;;;;;32.17;26.63;;;;;;;4.51;69.59;95974.34;5062096;28;20272;-69
2022/11/14 02:02:11;;;;;;;30.60;27.03;;;;;;;4.32;69.93;95961.56;5061902;28;20192;-68
2022/11/14 02:04:42;;;;;;;32.77;27.17;;;;;;;4.48;69.55;95961.50;5063182;28;20234;-68
2022/11/14 02:07:08;;;;;;;31.53;27.53;;;;;;;4.34;69.71;95955.34;5059131;28;20213;-68
2022/11/14 02:09:39;;;;;;;31.17;25.53;;;;;;;4.53;69.60;95960.28;5064443;28;20233;-68
2022/11/14 02:12:08;;;;;;;32.07;26.23;;;;;;;4.70;69.18;95959.25;5060888;28;20189;-68
2022/11/14 02:14:36;;;;;;;31.00;26.43;;;;;;;4.66;69.22;95949.16;5059641;28;20199;-68
2022/11/14 02:17:02;;;;;;;32.27;27.50;;;;;;;4.67;68.94;95948.22;5062793;28;20283;-68
2022/11/14 02:19:49;;;;;;;30.43;26.73;;;;;;;4.63;69.12;95950.16;5067015;28;20288;-68
2022/11/14 02:22:15;;;;;;;31.23;26.83;;;;;;;4.49;69.63;95951.00;5060681;28;20284;-68
2022/11/14 02:24:40;;;;;;;30.43;26.67;;;;;;;4.33;70.15;95955.41;5061771;28;20280;-68
2022/11/14 02:27:08;;;;;;;29.67;25.80;;;;;;;4.20;70.32;95953.56;5060443;28;20213;-70
2022/11/14 02:29:34;;;;;;;32.53;26.83;;;;;;;4.13;70.50;95952.22;5059788;28;20242;-68
2022/11/14 02:32:01;;;;;;;32.20;27.07;;;;;;;4.23;70.37;95947.34;5066033;28;20196;-68
2022/11/14 02:34:27;;;;;;;29.30;25.57;;;;;;;4.21;70.49;95959.59;5063955;28;20243;-67
2022/11/14 02:36:53;;;;;;;27.80;24.90;;;;;;;4.11;70.50;95954.06;5061876;28;20185;-70
2022/11/14 02:39:18;;;;;;;29.67;25.80;;;;;;;4.15;71.02;95955.59;5061482;28;20200;-69
2022/11/14 02:41:44;;;;;;;28.53;23.93;;;;;;;4.17;71.14;95956.34;5060555;28;20194;-69
2022/11/14 02:44:09;;;;;;;26.67;22.97;;;;;;;4.10;71.02;95968.03;5064024;28;20196;-69
2022/11/14 02:46:34;;;;;;;26.83;23.93;;;;;;;4.25;70.71;95955.91;5063199;28;20204;-69
2022/11/14 02:49:00;;;;;;;25.13;22.23;;;;;;;4.33;70.49;95956.28;5067216;28;20415;-68
2022/11/14 02:51:25;;;;;;;27.90;23.43;;;;;;;4.31;70.15;95950.31;5059630;28;20284;-68
2022/11/14 02:53:51;;;;;;;29.60;23.07;;;;;;;4.28;70.27;95947.06;5067869;28;20188;-69
2022/11/14 02:56:16;;;;;;;25.73;22.90;;;;;;;4.19;69.98;95943.22;5065386;28;20184;-69
2022/11/14 02:58:42;;;;;;;27.27;22.20;;;;;;;4.29;70.37;95943.53;5060556;28;20232;-68
2022/11/14 03:01:07;;;;;;;25.70;22.90;;;;;;;4.39;69.77;95944.66;5060738;28;20254;-68
2022/11/14 03:03:32;;;;;;;26.73;23.37;;;;;;;4.39;70.00;95936.84;5064268;28;20195;-69
2022/11/14 03:05:59;;;;;;;27.77;23.87;;;;;;;4.29;70.21;95941.75;5064647;28;20196;-69
2022/11/14 03:08:25;;;;;;;27.87;24.00;;;;;;;4.27;69.41;95943.59;5062834;28;20237;-69
2022/11/14 03:10:50;;;;;;;30.37;26.87;;;;;;;4.28;69.99;95940.09;5070237;28;20184;-69
2022/11/14 03:13:15;;;;;;;29.20;24.67;;;;;;;4.17;69.70;95939.88;5073110;28;20180;-69
2022/11/14 03:15:41;;;;;;;30.30;25.93;;;;;;;4.17;69.84;95938.13;5074832;28;20318;-69
2022/11/14 03:18:06;;;;;;;29.73;25.10;;;;;;;3.96;69.99;95945.41;5066693;28;20283;-69
2022/11/14 03:20:33;;;;;;;28.77;25.67;;;;;;;3.96;70.12;95935.00;5070008;28;20198;-69
2022/11/14 03:22:58;;;;;;;24.20;20.17;;;;;;;3.82;70.87;95934.94;5064109;28;20185;-69
2022/11/14 03:25:24;;;;;;;33.07;26.57;;;;;;;3.78;71.69;95946.47;5071550;28;20203;-69
2022/11/14 03:27:49;;;;;;;35.27;28.37;;;;;;;3.87;71.39;95948.53;5065029;28;20181;-69
2022/11/14 03:30:15;;;;;;;37.03;29.60;;;;;;;3.88;71.81;95947.63;5073892;28;20189;-69
2022/11/14 03:32:40;;;;;;;47.30;33.63;;;;;;;3.88;72.21;95947.63;5068425;28;20210;-69
2022/11/14 03:35:06;;;;;;;59.90;36.73;;;;;;;3.85;72.99;95947.81;5074650;28;20184;-69
2022/11/14 03:37:32;;;;;;;60.30;37.63;;;;;;;3.95;73.92;95943.72;5063884;28;20185;-69
2022/11/14 03:39:57;;;;;;;53.83;36.67;;;;;;;3.94;74.60;95941.22;5065694;28;20192;-69
2022/11/14 03:42:23;;;;;;;89.17;38.47;;;;;;;4.00;74.64;95940.84;5070579;28;20257;-69
2022/11/14 03:44:48;;;;;;;58.47;36.37;;;;;;;3.94;74.81;95943.81;5062173;28;20434;-69
2022/11/14 03:47:13;;;;;;;68.23;38.50;;;;;;;3.89;75.79;95940.66;5071242;28;20194;-69
2022/11/14 03:49:39;;;;;;;55.53;37.50;;;;;;;3.85;75.86;95942.59;5062940;28;20185;-70
2022/11/14 03:52:05;;;;;;;55.93;37.23;;;;;;;3.85;76.14;95936.53;5073354;28;20192;-68
2022/11/14 03:54:30;;;;;;;49.80;34.97;;;;;;;3.95;75.92;95945.50;5069307;28;20188;-68
2022/11/14 03:56:56;;;;;;;59.17;34.20;;;;;;;3.92;75.76;95938.69;5078867;28;20188;-68
2022/11/14 03:59:21;;;;;;;54.70;34.67;;;;;;;3.88;76.52;95941.59;5066956;28;20212;-68
2022/11/14 04:01:47;;;;;;;51.43;33.40;;;;;;;3.92;76.23;95937.88;5070731;28;20195;-68
2022/11/14 04:04:13;;;;;;;59.70;32.90;;;;;;;4.14;75.73;95940.91;5076295;28;20267;-68
2022/11/14 04:06:39;;;;;;;56.93;31.07;;;;;;;4.24;75.06;95935.16;5070522;28;20224;-68
2022/11/14 04:09:05;;;;;;;43.30;29.87;;;;;;;4.06;75.22;95934.47;5062901;28;20251;-68
2022/11/14 04:11:32;;;;;;;37.10;28.07;;;;;;;3.96;75.35;95928.97;5054162;28;20298;-69
2022/11/14 04:13:57;;;;;;;44.30;28.77;;;;;;;3.89;75.70;95936.28;5066221;28;20188;-68
2022/11/14 04:16:22;;;;;;;46.97;28.43;;;;;;;3.96;75.39;95932.41;5073683;28;20185;-68
2022/11/14 04:18:48;;;;;;;31.40;26.80;;;;;;;3.83;75.50;95933.22;5075240;28;20230;-69
2022/11/14 04:21:13;;;;;;;42.97;28.90;;;;;;;3.86;75.60;95939.06;5069829;28;20704;-68
2022/11/14 04:23:39;;;;;;;35.87;26.30;;;;;;;3.73;75.60;95938.91;5073595;28;20188;-70
2022/11/14 04:26:04;;;;;;;31.43;24.70;;;;;;;3.72;75.38;95937.25;5061404;28;20705;-68
2022/11/14 04:28:29;;;;;;;43.93;26.93;;;;;;;3.65;75.28;95932.47;5065610;28;20196;-69
2022/11/14 04:30:55;;;;;;;36.77;26.30;;;;;;;3.65;75.20;95924.69;5066327;28;20242;-69
2022/11/14 04:33:20;;;;;;;38.20;26.03;;;;;;;3.67;75.54;95934.06;5062901;28;20188;-70
2022/11/14 04:35:47;;;;;;;35.37;26.00;;;;;;;3.69;75.81;95926.19;5072528;28;20192;-70
2022/11/14 04:38:12;;;;;;;39.37;26.03;;;;;;;3.66;75.41;95926.34;5073511;28;20235;-68
2022/11/14 04:40:38;;;;;;;37.13;27.07;;;;;;;3.76;75.54;95933.53;5066793;28;20189;-71
2022/11/14 04:43:03;;;;;;;43.40;25.87;;;;;;;3.65;75.37;95928.13;5067771;28;20280;-68
2022/11/14 04:45:28;;;;;;;40.43;26.97;;;;;;;3.60;76.17;95927.53;5081340;28;20667;-68
2022/11/14 04:47:54;;;;;;;42.97;27.63;;;;;;;3.58;76.23;95933.75;5068699;28;20230;-68
2022/11/14 04:50:19;;;;;;;37.43;26.83;;;;;;;3.75;76.03;95925.84;5063762;28;20223;-68
2022/11/14 04:52:45;;;;;;;49.27;26.13;;;;;;;3.48;75.96;95921.28;5085141;28;20215;-68
2022/11/14 04:55:10;;;;;;;36.30;26.93;;;;;;;3.51;76.32;95923.69;5058871;28;20181;-69
2022/11/14 04:57:36;;;;;;;35.70;26.20;;;;;;;3.85;75.38;95927.00;5065741;28;20565;-69
2022/11/14 05:00:03;;;;;;;38.10;26.37;;;;;;;3.94;74.78;95920.41;5062162;28;20203;-69
2022/11/14 05:02:30;;;;;;;31.40;25.20;;;;;;;3.78;74.43;95922.22;5074823;28;20193;-68
2022/11/14 05:04:56;;;;;;;40.03;25.07;;;;;;;3.81;74.73;95912.47;5073611;28;20196;-69
2022/11/14 05:07:25;;;;;;;31.67;24.20;;;;;;;3.67;74.51;95921.06;5081329;28;20192;-69
2022/11/14 05:09:51;;;;;;;31.50;26.47;;;;;;;3.72;74.47;95926.84;5067471;28;20231;-69
2022/11/14 05:12:16;;;;;;;29.97;25.63;;;;;;;3.82;74.68;95929.75;5072561;28;20188;-68
2022/11/14 05:14:41;;;;;;;35.73;27.17;;;;;;;3.76;74.93;95932.69;5071941;28;20192;-69
2022/11/14 05:17:07;;;;;;;31.93;24.50;;;;;;;3.68;75.05;95927.09;5066712;28;20604;-69
2022/11/14 05:19:32;;;;;;;35.30;24.90;;;;;;;3.58;75.06;95931.97;5076169;28;20223;-67
2022/11/14 05:21:58;;;;;;;30.30;24.77;;;;;;;3.64;75.27;95936.03;5087242;28;20192;-68
2022/11/14 05:24:23;;;;;;;30.20;25.47;;;;;;;3.74;74.71;95944.94;5074401;28;20215;-70
2022/11/14 05:26:49;;;;;;;30.27;24.10;;;;;;;3.76;74.48;95943.94;5068586;28;20306;-67
2022/11/14 05:29:14;;;;;;;26.27;23.37;;;;;;;3.87;73.83;95945.94;5073200;28;20196;-68
2022/11/14 05:31:39;;;;;;;26.93;22.57;;;;;;;3.82;73.68;95936.72;5059050;28;20274;-69
2022/11/14 05:34:05;;;;;;;26.30;22.97;;;;;;;3.92;73.82;95940.47;5072493;28;20321;-69
2022/11/14 05:36:30;;;;;;;25.80;22.47;;;;;;;3.85;73.77;95937.41;5071450;28;20189;-69
2022/11/14 05:38:56;;;;;;;25.70;22.30;;;;;;;3.92;73.17;95948.28;5075504;28;20200;-69
2022/11/14 05:41:21;;;;;;;26.53;22.07;;;;;;;3.87;73.85;95943.31;5079058;28;20184;-68
2022/11/14 05:43:47;;;;;;;27.47;22.60;;;;;;;3.92;73.74;95943.91;5067168;28;20292;-69
2022/11/14 05:46:14;;;;;;;27.83;23.00;;;;;;;4.00;73.64;95948.66;5072625;28;20188;-69
2022/11/14 05:48:40;;;;;;;25.80;20.90;;;;;;;3.98;73.10;95947.91;5066907;28;20185;-69
2022/11/14 05:51:07;;;;;;;24.73;21.13;;;;;;;3.97;72.60;95951.44;5069160;28;20195;-69
2022/11/14 05:53:33;;;;;;;25.93;21.43;;;;;;;3.82;72.83;95947.13;5070446;28;20211;-69
2022/11/14 05:56:10;;;;;;;28.17;22.47;;;;;;;3.66;73.22;95947.16;5066507;28;20228;-68
2022/11/14 05:58:36;;;;;;;26.17;21.27;;;;;;;3.66;73.83;95947.16;5075562;28;20241;-69
2022/11/14 06:01:13;;;;;;;28.20;21.03;;;;;;;3.83;73.76;95949.66;5065880;28;20294;-69
2022/11/14 06:03:41;;;;;;;26.23;20.43;;;;;;;3.95;73.25;95948.91;5065549;28;20254;-69
2022/11/14 06:06:09;;;;;;;26.67;21.37;;;;;;;3.94;72.36;95952.47;5067319;28;20191;-69
2022/11/14 06:08:35;;;;;;;26.97;22.40;;;;;;;3.88;73.38;95955.44;5069717;28;20241;-69
2022/11/14 06:11:09;;;;;;;30.53;24.37;;;;;;;3.95;73.18;95959.34;5062617;28;20185;-68
2022/11/14 06:13:35;;;;;;;32.67;24.77;;;;;;;3.97;72.66;95956.66;5065760;28;20187;-69
2022/11/14 06:16:03;;;;;;;28.03;21.97;;;;;;;4.10;72.64;95967.19;5062319;28;20238;-68
2022/11/14 06:18:29;;;;;;;29.47;22.13;;;;;;;4.15;72.89;95965.16;5078119;28;20299;-68
2022/11/14 06:21:06;;;;;;;27.20;22.50;;;;;;;4.19;72.88;95971.84;5070663;28;20192;-68
2022/11/14 06:23:31;;;;;;;29.37;23.77;;;;;;;4.15;73.20;95976.41;5071295;28;20238;-66
2022/11/14 06:26:19;;;;;;;32.77;23.50;;;;;;;4.16;74.14;95972.03;5078934;28;20618;-65
2022/11/14 06:28:44;;;;;;;31.63;23.20;;;;;;;4.19;74.16;95967.47;5067517;28;20204;-68
2022/11/14 06:31:10;;;;;;;29.63;23.23;;;;;;;4.30;73.63;95964.25;5063486;28;20185;-70
2022/11/14 06:33:36;;;;;;;32.97;24.07;;;;;;;4.24;73.29;95969.81;5070241;28;20904;-70
2022/11/14 06:36:06;;;;;;;33.13;24.00;;;;;;;4.22;73.39;95969.06;5070669;28;20197;-69
2022/11/14 06:38:33;;;;;;;29.70;23.37;;;;;;;4.27;73.03;95968.81;5056662;28;20258;-69
2022/11/14 06:41:29;;;;;;;31.13;23.40;;;;;;;4.18;72.79;95965.81;5074013;28;20184;-69
2022/11/14 06:43:54;;;;;;;27.87;22.60;;;;;;;4.34;73.08;95959.72;5065276;28;20208;-73
2022/11/14 06:46:21;;;;;;;26.40;21.73;;;;;;;4.57;72.03;95958.34;5069047;28;20233;-74
2022/11/14 06:48:47;;;;;;;24.87;19.93;;;;;;;4.63;71.20;95953.59;5068232;28;20215;-72
2022/11/14 06:51:14;;;;;;;31.40;22.77;;;;;;;4.56;71.40;95964.47;5070380;28;20195;-68
2022/11/14 06:53:40;;;;;;;28.77;22.57;;;;;;;4.65;71.25;95956.09;5081998;28;20234;-69
2022/11/14 06:56:09;;;;;;;26.83;22.47;;;;;;;4.63;71.11;95955.38;5073761;28;20188;-69
2022/11/14 06:58:41;;;;;;;25.03;21.97;;;;;;;4.60;71.10;95958.19;5065418;28;20205;-68
2022/11/14 07:01:18;;;;;;;26.73;21.47;;;;;;;4.67;70.94;95949.03;5064362;28;20199;-70
2022/11/14 07:03:44;;;;;;;24.90;20.87;;;;;;;4.68;70.65;95948.13;5086488;28;20184;-69
2022/11/14 07:06:12;;;;;;;29.93;21.87;;;;;;;4.70;70.74;95941.03;5080204;28;20196;-69
2022/11/14 07:08:37;;;;;;;26.27;21.53;;;;;;;4.67;71.26;95949.03;5067461;28;20184;-69
2022/11/14 07:11:21;;;;;;;27.43;22.00;;;;;;;4.70;71.00;95950.63;5058177;28;20199;-71
2022/11/14 07:13:47;;;;;;;25.33;21.77;;;;;;;4.73;71.02;95945.22;5060871;28;20204;-71
2022/11/14 07:16:12;;;;;;;24.57;21.30;;;;;;;4.75;70.84;95949.41;5063003;28;20203;-69
2022/11/14 07:18:38;;;;;;;24.53;21.77;;;;;;;4.76;70.82;95945.06;5064912;28;20219;-71
2022/11/14 07:21:05;;;;;;;26.03;21.70;;;;;;;4.90;70.40;95944.22;5078322;28;20185;-71
2022/11/14 07:23:34;;;;;;;23.73;20.83;;;;;;;5.08;70.27;95953.50;5073168;28;20905;-69
2022/11/14 07:26:01;;;;;;;25.87;22.07;;;;;;;5.05;69.58;95951.91;5060065;28;20267;-70
2022/11/14 07:28:27;;;;;;;23.33;20.27;;;;;;;5.07;69.96;95946.59;5063973;28;20207;-70
2022/11/14 07:30:52;;;;;;;23.10;20.60;;;;;;;5.09;68.97;95950.78;5063423;28;20254;-70
2022/11/14 07:33:18;;;;;;;26.37;23.03;;;;;;;5.24;68.80;95942.94;5057560;28;20184;-70
2022/11/14 07:35:43;;;;;;;24.17;19.43;;;;;;;5.27;68.09;95945.38;5076179;28;20283;-70
2022/11/14 07:38:08;;;;;;;23.77;19.50;;;;;;;5.21;68.29;95946.59;5080881;28;20208;-68
2022/11/14 07:40:34;;;;;;;25.50;21.43;;;;;;;5.21;68.65;95937.91;5064823;28;20177;-69
2022/11/14 07:43:00;;;;;;;29.40;22.97;;;;;;;5.28;68.85;95940.03;5061282;28;20180;-66
2022/11/14 07:45:27;;;;;;;37.20;25.93;;;;;;;5.50;67.48;95936.06;5059747;28;20200;-67
2022/11/14 07:47:58;;;;;;;26.77;22.90;;;;;;;5.42;67.66;95933.09;5061387;28;20192;-67
2022/11/14 07:50:24;;;;;;;25.10;20.93;;;;;;;5.48;67.64;95945.75;5068599;28;20195;-67
2022/11/14 07:52:51;;;;;;;30.70;25.00;;;;;;;5.50;67.55;95941.28;5063251;28;20192;-66
2022/11/14 07:55:17;;;;;;;31.93;25.10;;;;;;;5.53;67.90;95941.06;5064576;28;20181;-67
2022/11/14 07:57:42;;;;;;;27.77;21.93;;;;;;;5.37;67.98;95941.22;5074734;28;20192;-67
2022/11/14 08:00:09;;;;;;;27.80;21.43;;;;;;;5.59;67.31;95938.09;5065836;28;20179;-67
2022/11/14 08:02:35;;;;;;;25.77;20.47;;;;;;;5.70;67.29;95934.78;5070749;28;20217;-70
2022/11/14 08:05:00;;;;;;;25.07;21.27;;;;;;;5.82;66.74;95935.75;5055597;28;20193;-69
2022/11/14 08:07:26;;;;;;;27.13;23.23;;;;;;;6.02;66.39;95931.88;5065919;28;20181;-70
2022/11/14 08:09:51;;;;;;;27.23;22.57;;;;;;;6.02;66.13;95937.09;5066216;28;20216;-72
2022/11/14 08:12:16;;;;;;;27.50;22.47;;;;;;;6.14;65.96;95937.09;5066423;28;20459;-69
2022/11/14 08:14:42;;;;;;;26.37;23.13;;;;;;;6.19;65.88;95932.41;5067959;28;20191;-70
2022/11/14 08:17:07;;;;;;;26.30;22.50;;;;;;;6.23;65.82;95933.06;5066035;28;20180;-71
2022/11/14 08:19:33;;;;;;;30.73;23.90;;;;;;;6.53;64.87;95926.72;5066583;28;20204;-70
2022/11/14 08:21:58;;;;;;;29.33;23.43;;;;;;;6.81;63.93;95921.22;5071201;28;20216;-70
2022/11/14 08:24:23;;;;;;;27.53;23.00;;;;;;;6.82;63.19;95928.16;5067576;28;20183;-70
2022/11/14 08:26:49;;;;;;;27.83;21.90;;;;;;;7.19;61.93;95924.72;5069234;28;20207;-71
2022/11/14 08:29:14;;;;;;;27.47;22.90;;;;;;;7.12;62.17;95923.50;5066312;28;20188;-69
2022/11/14 08:31:40;;;;;;;27.60;23.83;;;;;;;7.23;62.07;95918.34;5071389;28;20194;-68
2022/11/14 08:34:06;;;;;;;28.40;24.27;;;;;;;7.12;62.48;95920.88;5064876;28;20239;-69
2022/11/14 08:36:31;;;;;;;28.90;25.20;;;;;;;7.18;62.62;95925.66;5069337;28;20188;-70
2022/11/14 08:38:56;;;;;;;30.20;24.83;;;;;;;7.20;62.17;95911.53;5070063;28;20204;-69
2022/11/14 08:41:22;;;;;;;32.47;25.70;;;;;;;7.18;62.51;95917.81;5067486;28;20187;-72
2022/11/14 08:43:47;;;;;;;34.60;25.40;;;;;;;7.24;62.63;95915.63;5072440;28;20180;-70
2022/11/14 08:46:13;;;;;;;32.03;24.77;;;;;;;7.24;62.63;95912.16;5070837;28;20229;-72
2022/11/14 08:48:38;;;;;;;29.87;26.63;;;;;;;7.07;62.79;95913.34;5065355;28;20176;-72
2022/11/14 08:51:05;;;;;;;30.27;25.47;;;;;;;7.33;62.14;95919.34;5070204;28;20276;-74
2022/11/14 08:53:32;;;;;;;33.93;25.47;;;;;;;7.40;62.32;95917.13;5068815;28;20188;-74
2022/11/14 08:55:58;;;;;;;29.40;25.83;;;;;;;7.37;61.98;95909.50;5069932;28;20190;-74
2022/11/14 08:58:23;;;;;;;30.80;25.50;;;;;;;7.50;61.93;95911.13;5071072;28;20303;-70
2022/11/14 09:00:50;;;;;;;31.83;26.53;;;;;;;7.32;62.31;95896.75;5072782;28;20233;-71
2022/11/14 09:03:16;;;;;;;30.00;25.47;;;;;;;7.31;62.48;95896.88;5061880;28;20253;-72
2022/11/14 09:05:42;;;;;;;33.97;27.53;;;;;;;7.31;62.98;95889.84;5075879;28;20192;-70
2022/11/14 09:08:07;;;;;;;33.40;28.10;;;;;;;7.33;62.73;95885.34;5070701;28;20180;-71
2022/11/14 09:10:33;;;;;;;32.80;27.57;;;;;;;7.21;63.56;95880.97;5061095;28;20225;-69
2022/11/14 09:13:00;;;;;;;31.43;27.77;;;;;;;7.31;63.03;95882.00;5057374;28;20193;-69
2022/11/14 09:15:29;;;;;;;33.13;27.00;;;;;;;7.50;63.17;95881.50;5062837;28;20204;-68
2022/11/14 09:17:56;;;;;;;31.73;27.70;;;;;;;7.55;63.01;95875.94;5060825;28;20196;-70
2022/11/14 09:20:24;;;;;;;32.83;28.43;;;;;;;7.62;62.71;95866.69;5063694;28;20181;-70
2022/11/14 09:22:52;;;;;;;34.07;29.60;;;;;;;7.65;62.56;95861.22;5062059;28;20200;-70
2022/11/14 09:25:20;;;;;;;33.37;28.90;;;;;;;7.73;62.56;95858.88;5061456;28;20204;-69
2022/11/14 09:27:46;;;;;;;34.43;29.27;;;;;;;7.86;61.98;95853.56;5060300;28;20197;-69
2022/11/14 09:30:13;;;;;;;32.13;28.23;;;;;;;7.83;62.11;95851.16;5064212;28;20193;-69
2022/11/14 09:32:38;;;;;;;32.43;28.93;;;;;;;7.78;62.62;95859.38;5060768;28;20270;-69
2022/11/14 09:35:04;;;;;;;34.20;29.33;;;;;;;7.87;62.29;95853.44;5065088;28;20301;-70
2022/11/14 09:37:29;;;;;;;32.17;27.57;;;;;;;7.91;62.55;95854.91;5059655;28;20189;-70
2022/11/14 09:39:55;;;;;;;32.93;27.40;;;;;;;8.23;61.66;95854.22;5061828;28;20217;-69
2022/11/14 09:42:45;;;;;;;31.00;26.27;;;;;;;8.41;61.14;95845.94;5063184;28;20223;-72
2022/11/14 09:45:19;;;;;;;35.33;27.10;;;;;;;8.49;60.98;95849.66;5059554;28;20197;-72
2022/11/14 09:47:49;;;;;;;35.40;29.03;;;;;;;8.30;61.33;95844.94;5063262;28;20192;-71
2022/11/14 09:50:18;;;;;;;35.53;28.83;;;;;;;8.12;61.76;95841.94;5063240;28;20278;-72
2022/11/14 09:52:49;;;;;;;35.00;30.20;;;;;;;8.37;61.45;95842.72;5066116;28;20185;-72
2022/11/14 09:55:32;;;;;;;35.07;27.67;;;;;;;8.55;60.80;95832.59;5061750;28;20643;-70
2022/11/14 09:58:00;;;;;;;33.30;29.33;;;;;;;8.74;60.16;95832.00;5076044;28;20485;-70
2022/11/14 10:00:33;;;;;;;36.73;28.20;;;;;;;8.69;60.36;95832.38;5069636;28;20197;-69
2022/11/14 10:03:16;;;;;;;33.63;28.40;;;;;;;8.75;60.73;95834.50;5062230;28;20206;-70
2022/11/14 10:06:08;;;;;;;37.30;29.63;;;;;;;8.92;59.75;95821.84;5057242;28;20193;-70
2022/11/14 10:08:56;;;;;;;33.10;28.13;;;;;;;8.93;59.75;95824.38;5060842;28;20186;-72
2022/11/14 10:11:28;;;;;;;37.37;29.30;;;;;;;9.11;58.95;95814.19;5044216;28;20206;-72
2022/11/14 10:14:07;;;;;;;32.03;26.97;;;;;;;9.17;59.28;95818.13;5045345;28;20200;-71
2022/11/14 10:17:02;;;;;;;34.13;28.07;;;;;;;9.41;58.53;95807.41;5040302;28;20247;-72
2022/11/14 10:20:03;;;;;;;35.63;28.97;;;;;;;9.41;58.45;95807.41;4970572;28;20301;-73
2022/11/14 10:22:57;;;;;;;31.93;27.40;;;;;;;9.36;58.62;95806.97;4970442;28;20200;-71
2022/11/14 10:25:49;;;;;;;32.70;26.53;;;;;;;9.73;57.76;95794.28;4967213;28;20226;-70
2022/11/14 10:28:49;;;;;;;35.97;28.30;;;;;;;9.67;57.85;95789.50;4987169;28;20358;-70
2022/11/14 10:31:30;;;;;;;35.43;27.87;;;;;;;9.80;57.77;95778.81;4968116;28;20207;-71
2022/11/14 10:34:20;;;;;;;32.07;27.57;;;;;;;10.05;57.05;95777.59;4973928;28;20205;-69
2022/11/14 10:36:54;;;;;;;32.93;27.43;;;;;;;9.92;57.13;95767.31;4974024;28;20203;-68
2022/11/14 10:39:31;;;;;;;34.67;28.50;;;;;;;10.27;56.32;95772.22;4969403;28;20208;-68
2022/11/14 10:42:01;;;;;;;34.73;28.47;;;;;;;10.23;56.32;95768.13;4972361;28;20222;-68
2022/11/14 10:44:35;;;;;;;36.73;29.33;;;;;;;10.36;55.95;95760.06;4970121;28;20302;-70
2022/11/14 10:47:05;;;;;;;30.57;25.07;;;;;;;10.61;55.52;95764.03;4971918;28;20257;-69
2022/11/14 10:49:37;;;;;;;34.40;25.90;;;;;;;10.63;54.99;95756.84;4967871;28;20226;-67
2022/11/14 10:52:08;;;;;;;38.90;32.70;;;;;;;10.19;57.03;95764.13;4971989;28;20486;-63
2022/11/14 10:54:58;;;;;;;29.73;25.80;;;;;;;10.34;56.41;95749.69;4965882;28;20200;-65
2022/11/14 10:57:24;;;;;;;30.60;27.37;;;;;;;10.40;55.96;95742.22;5042198;28;20178;-69
2022/11/14 10:59:51;;;;;;;30.77;26.80;;;;;;;10.24;56.52;95745.34;5038319;28;20213;-66
2022/11/14 11:02:16;;;;;;;29.90;26.20;;;;;;;10.30;56.63;95744.84;5043481;28;20209;-68
2022/11/14 11:04:44;;;;;;;32.33;27.63;;;;;;;10.52;55.82;95738.53;5038183;28;20224;-70
2022/11/14 11:11:28;;;;;;;30.83;26.60;;;;;;;10.62;55.34;95734.16;5044596;28;20190;-67
2022/11/14 11:12:51;;;;;;;32.07;27.07;;;;;;;11.03;55.02;95733.09;5077600;28;20195;-69
2022/11/14 11:15:23;;;;;;;28.43;25.37;;;;;;;11.37;53.86;95730.06;5063189;28;20197;-72
2022/11/14 11:17:57;;;;;;;32.07;26.03;;;;;;;11.76;52.84;95730.06;5068099;28;20199;-68
2022/11/14 11:20:22;;;;;;;27.57;24.70;;;;;;;10.99;53.94;95729.09;5070910;28;20195;-64
2022/11/14 11:22:48;;;;;;;29.90;26.03;;;;;;;11.31;53.61;95729.81;5070187;28;20222;-72
2022/11/14 11:25:28;;;;;;;32.13;27.63;;;;;;;11.57;53.23;95722.16;5065930;28;20254;-67
2022/11/14 11:28:14;;;;;;;33.13;25.77;;;;;;;12.10;51.65;95721.66;5061604;28;20195;-70
2022/11/14 11:30:55;;;;;;;30.37;26.73;;;;;;;12.32;51.51;95716.03;5063808;28;20230;-65
2022/11/14 11:33:20;;;;;;;32.33;26.73;;;;;;;12.30;51.74;95712.72;5078328;28;20217;-68